createdAt,value
2022-09-22T00:01:40.079Z,3.30
2022-09-22T00:04:14.604Z,3.40
2022-09-22T00:06:47.302Z,3.00
2022-09-22T00:09:19.958Z,3.25
2022-09-22T00:14:23.054Z,2.92
2022-09-22T00:16:54.660Z,2.85
2022-09-22T00:19:25.596Z,3.10
2022-09-22T00:21:54.352Z,2.88
2022-09-22T00:24:24.675Z,2.85
2022-09-22T00:26:57.508Z,2.88
2022-09-22T00:29:30.079Z,2.40
2022-09-22T00:32:03.558Z,2.85
2022-09-22T00:34:34.718Z,2.63
2022-09-22T00:37:02.893Z,2.25
2022-09-22T00:39:31.862Z,2.85
2022-09-22T00:42:00.384Z,3.03
2022-09-22T00:44:39.959Z,2.47
2022-09-22T00:47:21.533Z,3.00
2022-09-22T00:49:56.520Z,2.30
2022-09-22T00:52:30.344Z,2.70
2022-09-22T00:55:04.581Z,2.40
2022-09-22T00:57:36.172Z,2.90
2022-09-22T01:00:09.707Z,2.70
2022-09-22T01:02:38.268Z,2.80
2022-09-22T01:05:08.488Z,2.97
2022-09-22T01:07:38.327Z,2.85
2022-09-22T01:10:07.639Z,2.67
2022-09-22T01:12:37.098Z,2.67
2022-09-22T01:15:25.454Z,2.10
2022-09-22T01:18:14.911Z,2.50
2022-09-22T01:21:21.314Z,2.22
2022-09-22T01:24:22.095Z,3.03
2022-09-22T01:27:46.559Z,2.85
2022-09-22T01:30:27.263Z,2.60
2022-09-22T01:33:23.307Z,2.55
2022-09-22T01:36:10.612Z,3.15
2022-09-22T01:38:48.576Z,3.05
2022-09-22T01:41:35.019Z,2.80
2022-09-22T01:44:08.583Z,3.08
2022-09-22T01:46:44.016Z,2.78
2022-09-22T01:49:15.508Z,2.58
2022-09-22T01:51:49.358Z,2.70
2022-09-22T01:54:22.243Z,2.65
2022-09-22T01:56:57.744Z,2.47
2022-09-22T01:59:31.667Z,2.83
2022-09-22T02:02:07.842Z,2.85
2022-09-22T02:04:40.622Z,2.63
2022-09-22T02:09:43.427Z,2.63
2022-09-22T02:12:11.662Z,2.40
2022-09-22T02:14:39.940Z,2.28
2022-09-22T02:17:10.523Z,2.90
2022-09-22T02:19:40.953Z,2.53
2022-09-22T02:22:12.056Z,2.50
2022-09-22T02:24:42.908Z,2.70
2022-09-22T02:27:20.432Z,3.00
2022-09-22T02:29:56.979Z,3.05
2022-09-22T02:32:28.290Z,2.85
2022-09-22T02:34:57.196Z,2.53
2022-09-22T02:37:34.480Z,2.40
2022-09-22T02:40:09.975Z,3.08
2022-09-22T02:42:44.415Z,2.83
2022-09-22T02:45:18.500Z,2.30
2022-09-22T02:47:53.486Z,2.50
2022-09-22T02:50:24.152Z,2.85
2022-09-22T02:52:54.687Z,2.70
2022-09-22T02:55:22.835Z,2.75
2022-09-22T02:57:51.113Z,2.05
2022-09-22T03:00:19.483Z,2.50
2022-09-22T03:02:49.576Z,2.47
2022-09-22T03:05:17.871Z,2.33
2022-09-22T03:07:46.207Z,2.55
2022-09-22T03:10:14.421Z,2.80
2022-09-22T03:13:08.975Z,2.10
2022-09-22T03:15:32.198Z,2.50
2022-09-22T03:18:02.148Z,2.53
2022-09-22T03:20:30.423Z,2.70
2022-09-22T03:22:58.711Z,2.58
2022-09-22T03:25:26.927Z,2.03
2022-09-22T03:27:55.137Z,2.85
2022-09-22T03:30:23.717Z,2.78
2022-09-22T03:32:51.927Z,3.00
2022-09-22T03:35:21.500Z,2.30
2022-09-22T03:37:49.946Z,3.35
2022-09-22T03:40:18.338Z,3.45
2022-09-22T03:42:46.807Z,2.75
2022-09-22T03:45:16.371Z,2.85
2022-09-22T03:47:44.807Z,3.22
2022-09-22T03:50:13.443Z,3.53
2022-09-22T03:52:44.916Z,3.00
2022-09-22T03:55:13.862Z,3.15
2022-09-22T03:57:43.349Z,3.42
2022-09-22T04:00:13.983Z,3.50
2022-09-22T04:02:42.357Z,3.10
2022-09-22T04:05:12.611Z,3.40
2022-09-22T04:07:42.495Z,3.03
2022-09-22T04:10:10.915Z,3.00
2022-09-22T04:12:39.123Z,4.07
2022-09-22T04:15:08.939Z,3.35
2022-09-22T04:17:38.041Z,3.42
2022-09-22T04:20:09.557Z,3.00
2022-09-22T04:22:37.712Z,2.65
2022-09-22T04:25:09.766Z,2.80
2022-09-22T04:27:37.961Z,3.03
2022-09-22T04:30:08.389Z,2.67
2022-09-22T04:32:36.760Z,2.83
2022-09-22T04:35:06.078Z,2.70
2022-09-22T04:37:34.365Z,2.75
2022-09-22T04:40:03.502Z,2.95
2022-09-22T04:42:33.226Z,2.92
2022-09-22T04:45:02.065Z,2.95
2022-09-22T04:47:30.695Z,2.97
2022-09-22T04:49:59.252Z,2.47
2022-09-22T04:52:27.863Z,2.83
2022-09-22T04:54:55.981Z,2.70
2022-09-22T04:57:24.209Z,2.72
2022-09-22T04:59:54.035Z,3.10
2022-09-22T05:02:22.264Z,2.90
2022-09-22T05:04:50.475Z,3.08
2022-09-22T05:07:18.655Z,2.65
2022-09-22T05:09:47.692Z,2.85
2022-09-22T05:12:15.824Z,2.85
2022-09-22T05:14:44.044Z,2.63
2022-09-22T05:17:14.160Z,3.30
2022-09-22T05:19:42.354Z,2.60
2022-09-22T05:22:10.656Z,2.65
2022-09-22T05:24:38.848Z,3.10
2022-09-22T05:27:07.634Z,2.88
2022-09-22T05:29:35.972Z,3.00
2022-09-22T05:32:04.262Z,3.15
2022-09-22T05:34:34.050Z,3.42
2022-09-22T05:37:02.323Z,2.70
2022-09-22T05:39:30.923Z,2.90
2022-09-22T05:41:59.293Z,3.50
2022-09-22T05:44:28.071Z,2.78
2022-09-22T05:46:56.175Z,2.83
2022-09-22T05:49:24.419Z,2.97
2022-09-22T05:51:57.202Z,3.63
2022-09-22T05:54:25.834Z,3.17
2022-09-22T05:56:54.112Z,2.97
2022-09-22T05:59:22.419Z,2.80
2022-09-22T06:01:50.708Z,3.40
2022-09-22T06:04:19.592Z,2.88
2022-09-22T06:06:47.746Z,3.72
2022-09-22T06:09:17.240Z,3.25
2022-09-22T06:11:45.683Z,3.53
2022-09-22T06:14:13.886Z,3.90
2022-09-22T06:16:43.104Z,4.00
2022-09-22T06:19:11.497Z,4.57
2022-09-22T06:21:39.693Z,2.90
2022-09-22T06:24:08.054Z,3.60
2022-09-22T06:26:37.587Z,3.15
2022-09-22T06:29:06.368Z,3.80
2022-09-22T06:31:34.970Z,4.00
2022-09-22T06:34:07.503Z,4.20
2022-09-22T06:36:36.161Z,4.30
2022-09-22T06:39:06.073Z,3.97
2022-09-22T06:41:35.225Z,4.18
2022-09-22T06:44:06.743Z,4.10
2022-09-22T06:46:36.173Z,3.75
2022-09-22T06:49:05.008Z,4.10
2022-09-22T06:51:35.570Z,3.92
2022-09-22T06:54:06.735Z,3.65
2022-09-22T06:56:42.867Z,2.92
2022-09-22T06:59:14.540Z,3.60
2022-09-22T07:01:45.967Z,3.20
2022-09-22T07:04:14.935Z,3.22
2022-09-22T07:06:44.245Z,2.60
2022-09-22T07:09:12.737Z,3.13
2022-09-22T07:11:41.158Z,3.00
2022-09-22T07:14:12.597Z,2.90
2022-09-22T07:16:43.489Z,2.70
2022-09-22T07:19:11.959Z,3.30
2022-09-22T07:21:40.689Z,3.28
2022-09-22T07:24:09.438Z,3.58
2022-09-22T07:26:40.822Z,2.97
2022-09-22T07:29:13.214Z,2.92
2022-09-22T07:31:43.187Z,2.88
2022-09-22T07:34:12.712Z,2.72
2022-09-22T07:36:41.829Z,3.20
2022-09-22T07:39:12.580Z,3.10
2022-09-22T07:41:43.515Z,2.67
2022-09-22T07:44:32.057Z,2.88
2022-09-22T07:47:03.068Z,2.72
2022-09-22T07:49:31.852Z,2.90
2022-09-22T07:52:00.465Z,3.25
2022-09-22T07:54:30.640Z,2.58
2022-09-22T07:56:59.500Z,2.85
2022-09-22T07:59:28.717Z,2.60
2022-09-22T08:02:00.181Z,2.20
2022-09-22T08:04:31.882Z,2.10
2022-09-22T08:07:00.367Z,2.47
2022-09-22T08:09:29.628Z,2.63
2022-09-22T08:11:58.339Z,2.45
2022-09-22T08:14:27.700Z,2.35
2022-09-22T08:16:55.974Z,2.33
2022-09-22T08:19:25.724Z,2.20
2022-09-22T08:21:55.447Z,2.13
2022-09-22T08:24:24.263Z,2.30
2022-09-22T08:26:56.020Z,2.20
2022-09-22T08:29:25.462Z,1.90
2022-09-22T08:31:54.601Z,2.08
2022-09-22T08:34:23.311Z,2.08
2022-09-22T08:36:51.868Z,2.28
2022-09-22T08:39:21.757Z,2.22
2022-09-22T08:42:08.361Z,3.33
2022-09-22T08:44:43.441Z,2.92
2022-09-22T08:47:40.042Z,2.90
2022-09-22T08:50:44.651Z,2.65
2022-09-22T08:53:19.725Z,2.83
2022-09-22T08:56:05.250Z,2.45
2022-09-22T08:58:45.195Z,1.80
2022-09-22T09:01:31.856Z,2.15
2022-09-22T09:04:18.679Z,2.00
2022-09-22T09:06:59.183Z,2.15
2022-09-22T09:09:43.236Z,2.33
2022-09-22T09:12:46.784Z,2.22
2022-09-22T09:15:41.593Z,2.22
2022-09-22T09:18:17.936Z,2.40
2022-09-22T09:20:48.953Z,2.30
2022-09-22T09:23:20.372Z,2.35
2022-09-22T09:25:54.303Z,2.20
2022-09-22T09:28:35.242Z,2.88
2022-09-22T09:31:12.814Z,2.47
2022-09-22T09:33:58.288Z,2.70
2022-09-22T09:36:33.121Z,2.33
2022-09-22T09:39:15.036Z,2.38
2022-09-22T09:41:46.726Z,2.30
2022-09-22T09:44:27.376Z,2.03
2022-09-22T09:47:04.290Z,1.42
2022-09-22T09:49:33.129Z,1.40
2022-09-22T09:52:05.291Z,1.30
2022-09-22T09:54:33.998Z,1.40
2022-09-22T09:57:15.248Z,1.30
2022-09-22T10:00:04.836Z,1.40
2022-09-22T10:02:51.921Z,1.38
2022-09-22T10:05:37.789Z,1.30
2022-09-22T10:08:20.079Z,1.13
2022-09-22T10:10:49.806Z,0.80
2022-09-22T10:13:56.562Z,0.77
2022-09-22T10:16:28.373Z,0.80
2022-09-22T10:19:19.482Z,0.88
2022-09-22T10:21:48.917Z,1.02
2022-09-22T10:24:31.500Z,0.80
2022-09-22T10:29:33.706Z,0.90
2022-09-22T10:32:12.883Z,1.48
2022-09-22T10:37:18.791Z,1.25
2022-09-22T10:39:50.566Z,0.90
2022-09-22T10:42:34.551Z,1.17
2022-09-22T10:45:07.470Z,0.90
2022-09-22T10:47:59.204Z,0.68
2022-09-22T10:50:48.655Z,0.90
2022-09-22T10:53:33.356Z,0.80
2022-09-22T10:56:14.720Z,0.90
2022-09-22T10:59:33.657Z,0.80
2022-09-22T11:02:26.613Z,0.63
2022-09-22T11:05:42.045Z,0.80
2022-09-22T11:08:33.090Z,0.90
2022-09-22T11:11:28.819Z,0.65
2022-09-22T11:14:16.480Z,0.70
2022-09-22T11:17:17.849Z,0.90
2022-09-22T11:20:45.876Z,0.77
2022-09-22T11:23:58.207Z,0.90
2022-09-22T11:26:48.618Z,0.80
2022-09-22T11:30:16.955Z,0.95
2022-09-22T11:33:13.174Z,0.90
2022-09-22T11:36:00.704Z,1.00
2022-09-22T11:38:55.067Z,0.80
2022-09-22T11:41:35.517Z,1.00
2022-09-22T11:44:37.864Z,0.88
2022-09-22T11:47:47.455Z,0.80
2022-09-22T11:50:39.487Z,0.90
2022-09-22T11:53:39.584Z,1.02
2022-09-22T11:56:25.718Z,0.90
2022-09-22T11:58:59.046Z,0.90
2022-09-22T12:01:33.476Z,1.08
2022-09-22T12:04:09.322Z,0.95
2022-09-22T12:06:43.672Z,1.00
2022-09-22T12:09:25.081Z,1.10
2022-09-22T12:11:56.194Z,0.88
2022-09-22T12:14:25.988Z,0.88
2022-09-22T12:17:03.089Z,1.00
2022-09-22T12:19:44.010Z,0.90
2022-09-22T12:22:19.509Z,0.80
2022-09-22T12:24:50.748Z,1.10
2022-09-22T12:27:24.606Z,0.90
2022-09-22T12:29:59.301Z,0.90
2022-09-22T12:32:37.140Z,1.02
2022-09-22T12:35:10.612Z,0.85
2022-09-22T12:37:41.424Z,1.10
2022-09-22T12:40:30.818Z,1.10
2022-09-22T12:43:00.960Z,0.80
2022-09-22T12:45:34.170Z,0.85
2022-09-22T12:48:11.103Z,0.98
2022-09-22T12:50:42.101Z,1.08
2022-09-22T12:53:27.001Z,0.90
2022-09-22T12:55:57.629Z,0.90
2022-09-22T12:58:44.858Z,0.90
2022-09-22T13:01:33.880Z,1.02
2022-09-22T13:04:19.685Z,0.90
2022-09-22T13:07:00.796Z,0.80
2022-09-22T13:09:32.382Z,0.80
2022-09-22T13:12:31.438Z,1.00
2022-09-22T13:15:22.797Z,0.85
2022-09-22T13:17:52.187Z,1.00
2022-09-22T13:20:25.240Z,0.90
2022-09-22T13:22:56.638Z,1.00
2022-09-22T13:25:30.126Z,1.00
2022-09-22T13:28:18.249Z,0.98
2022-09-22T13:30:49.018Z,0.90
2022-09-22T13:33:23.549Z,1.10
2022-09-22T13:36:07.086Z,0.90
2022-09-22T13:38:40.253Z,1.10
2022-09-22T13:41:15.172Z,1.02
2022-09-22T13:43:49.939Z,0.90
2022-09-22T13:46:25.536Z,0.98
2022-09-22T13:48:57.549Z,0.90
2022-09-22T13:51:27.750Z,1.20
2022-09-22T13:53:58.762Z,1.15
2022-09-22T13:56:27.917Z,1.02
2022-09-22T13:59:02.755Z,0.80
2022-09-22T14:01:31.652Z,0.90
2022-09-22T14:04:00.075Z,0.88
2022-09-22T14:06:34.198Z,1.25
2022-09-22T14:09:04.217Z,0.98
2022-09-22T14:11:34.188Z,1.00
2022-09-22T14:14:06.761Z,1.13
2022-09-22T14:16:49.741Z,0.90
2022-09-22T14:19:22.282Z,0.82
2022-09-22T14:21:53.583Z,1.00
2022-09-22T14:24:22.146Z,1.08
2022-09-22T14:26:52.583Z,1.20
2022-09-22T14:29:26.184Z,0.90
2022-09-22T14:32:02.866Z,0.95
2022-09-22T14:34:34.562Z,1.10
2022-09-22T14:37:20.198Z,1.10
2022-09-22T14:39:50.719Z,1.10
2022-09-22T14:42:22.962Z,1.00
2022-09-22T14:44:53.847Z,1.17
2022-09-22T14:47:29.652Z,1.00
2022-09-22T14:50:12.631Z,0.90
2022-09-22T14:52:47.383Z,1.15
2022-09-22T14:55:26.270Z,0.95
2022-09-22T14:57:54.471Z,0.73
2022-09-22T15:00:41.581Z,0.88
2022-09-22T15:03:22.068Z,1.20
2022-09-22T15:05:51.419Z,1.00
2022-09-22T15:08:27.868Z,1.17
2022-09-22T15:10:59.520Z,0.90
2022-09-22T15:13:40.114Z,1.30
2022-09-22T15:16:43.199Z,1.00
2022-09-22T15:19:12.136Z,0.90
2022-09-22T15:21:50.559Z,0.90
2022-09-22T15:24:27.089Z,0.90
2022-09-22T15:26:57.251Z,1.15
2022-09-22T15:29:26.226Z,0.90
2022-09-22T15:31:55.978Z,0.93
2022-09-22T15:34:24.263Z,1.30
2022-09-22T15:36:55.771Z,1.20
2022-09-22T15:39:25.307Z,1.27
2022-09-22T15:41:55.191Z,1.25
2022-09-22T15:44:23.460Z,1.35
2022-09-22T15:46:56.532Z,1.20
2022-09-22T15:49:27.450Z,1.00
2022-09-22T15:51:56.759Z,1.10
2022-09-22T15:54:26.713Z,1.20
2022-09-22T15:56:57.688Z,1.10
2022-09-22T15:59:28.183Z,0.95
2022-09-22T16:01:59.413Z,0.77
2022-09-22T16:04:34.112Z,1.05
2022-09-22T16:07:08.349Z,1.20
2022-09-22T16:09:38.487Z,1.10
2022-09-22T16:12:08.613Z,1.20
2022-09-22T16:14:37.186Z,1.05
2022-09-22T16:17:07.579Z,1.58
2022-09-22T16:19:36.045Z,1.25
2022-09-22T16:22:04.352Z,2.10
2022-09-22T16:24:32.574Z,1.10
2022-09-22T16:27:06.161Z,1.00
2022-09-22T16:29:37.306Z,1.20
2022-09-22T16:32:07.567Z,1.20
2022-09-22T16:34:37.554Z,1.10
2022-09-22T16:37:06.013Z,1.08
2022-09-22T16:39:34.310Z,1.27
2022-09-22T16:42:03.266Z,1.55
2022-09-22T16:44:31.523Z,1.10
2022-09-22T16:46:59.775Z,1.10
2022-09-22T16:49:29.399Z,1.40
2022-09-22T16:51:57.542Z,1.50
2022-09-22T16:54:26.131Z,1.80
2022-09-22T16:56:54.792Z,1.80
2022-09-22T16:59:24.029Z,2.25
2022-09-22T17:01:52.719Z,1.70
2022-09-22T17:04:22.166Z,1.67
2022-09-22T17:06:53.023Z,1.63
2022-09-22T17:09:21.796Z,1.60
2022-09-22T17:11:50.689Z,2.13
2022-09-22T17:14:22.932Z,1.70
2022-09-22T17:16:52.791Z,1.88
2022-09-22T17:19:23.147Z,1.80
2022-09-22T17:21:55.268Z,2.13
2022-09-22T17:24:25.304Z,1.70
2022-09-22T17:26:56.370Z,2.30
2022-09-22T17:29:27.175Z,2.88
2022-09-22T17:31:59.202Z,3.20
2022-09-22T17:34:29.117Z,3.97
2022-09-22T17:36:59.566Z,3.67
2022-09-22T17:39:30.217Z,3.83
2022-09-22T17:41:58.516Z,3.20
2022-09-22T17:44:28.798Z,3.35
2022-09-22T17:47:14.658Z,3.15
2022-09-22T17:50:00.729Z,2.90
2022-09-22T17:52:47.916Z,2.90
2022-09-22T17:55:22.481Z,2.70
2022-09-22T17:57:52.602Z,3.78
2022-09-22T18:00:23.973Z,3.00
2022-09-22T18:02:54.900Z,3.10
2022-09-22T18:05:26.788Z,2.88
2022-09-22T18:07:57.871Z,2.67
2022-09-22T18:10:32.094Z,3.17
2022-09-22T18:13:02.258Z,3.72
2022-09-22T18:15:30.729Z,3.80
2022-09-22T18:17:59.395Z,5.60
2022-09-22T18:20:28.617Z,5.50
2022-09-22T18:23:00.171Z,5.65
2022-09-22T18:25:28.932Z,3.77
2022-09-22T18:27:57.917Z,5.07
2022-09-22T18:30:26.570Z,4.80
2022-09-22T18:32:54.948Z,3.33
2022-09-22T18:35:24.048Z,2.40
2022-09-22T18:37:52.328Z,2.92
2022-09-22T18:40:22.130Z,2.80
2022-09-22T18:42:52.868Z,2.80
2022-09-22T18:45:21.465Z,3.00
2022-09-22T18:47:52.267Z,3.20
2022-09-22T18:50:20.647Z,3.20
2022-09-22T18:52:49.142Z,3.38
2022-09-22T18:55:18.720Z,2.92
2022-09-22T18:57:48.549Z,3.13
2022-09-22T19:00:21.956Z,2.42
2022-09-22T19:02:50.618Z,3.00
2022-09-22T19:05:19.491Z,2.97
2022-09-22T19:07:48.300Z,3.25
2022-09-22T19:10:21.614Z,2.20
2022-09-22T19:12:51.337Z,2.60
2022-09-22T19:15:20.776Z,2.58
2022-09-22T19:17:50.161Z,2.40
2022-09-22T19:20:23.778Z,2.95
2022-09-22T19:22:53.802Z,2.55
2022-09-22T19:25:23.412Z,2.90
2022-09-22T19:27:54.385Z,3.90
2022-09-22T19:30:26.643Z,3.80
2022-09-22T19:32:57.845Z,3.47
2022-09-22T19:35:26.793Z,2.92
2022-09-22T19:37:55.625Z,3.22
2022-09-22T19:40:24.949Z,3.05
2022-09-22T19:42:55.700Z,2.63
2022-09-22T19:45:25.478Z,3.00
2022-09-22T19:47:55.436Z,3.40
2022-09-22T19:50:24.053Z,2.85
2022-09-22T19:52:52.628Z,3.15
2022-09-22T19:55:21.737Z,3.20
2022-09-22T19:57:52.284Z,2.60
2022-09-22T20:00:26.069Z,3.88
2022-09-22T20:02:58.918Z,2.88
2022-09-22T20:05:31.615Z,2.67
2022-09-22T20:08:01.398Z,2.90
2022-09-22T20:10:31.798Z,3.15
2022-09-22T20:13:00.666Z,3.90
2022-09-22T20:15:30.394Z,3.95
2022-09-22T20:17:58.700Z,4.47
2022-09-22T20:20:30.434Z,4.07
2022-09-22T20:23:00.507Z,3.40
2022-09-22T20:25:32.029Z,3.78
2022-09-22T20:28:00.710Z,3.45
2022-09-22T20:30:30.536Z,2.63
2022-09-22T20:32:59.177Z,2.88
2022-09-22T20:35:28.492Z,2.83
2022-09-22T20:37:58.198Z,3.38
2022-09-22T20:40:27.853Z,3.45
2022-09-22T20:42:56.605Z,3.22
2022-09-22T20:45:25.276Z,3.25
2022-09-22T20:47:56.528Z,3.60
2022-09-22T20:50:25.473Z,4.97
2022-09-22T20:52:55.418Z,3.58
2022-09-22T20:55:24.007Z,3.30
2022-09-22T20:57:52.625Z,2.97
2022-09-22T21:00:22.169Z,3.80
2022-09-22T21:02:51.325Z,4.32
2022-09-22T21:05:21.652Z,3.20
2022-09-22T21:08:10.511Z,3.80
2022-09-22T21:10:37.956Z,3.88
2022-09-22T21:13:06.379Z,4.13
2022-09-22T21:15:34.817Z,3.72
2022-09-22T21:18:03.628Z,4.03
2022-09-22T21:20:33.462Z,4.03
2022-09-22T21:23:02.645Z,3.28
2022-09-22T21:25:37.753Z,3.83
2022-09-22T21:28:06.467Z,3.60
2022-09-22T21:30:35.528Z,3.22
2022-09-22T21:33:05.514Z,3.92
2022-09-22T21:35:37.817Z,4.25
2022-09-22T21:38:06.300Z,4.20
2022-09-22T21:40:34.799Z,3.80
2022-09-22T21:43:03.247Z,4.30
2022-09-22T21:45:31.735Z,3.75
2022-09-22T21:48:00.192Z,3.78
2022-09-22T21:50:29.276Z,3.58
2022-09-22T21:52:58.800Z,3.95
2022-09-22T21:55:27.232Z,4.32
2022-09-22T21:57:56.416Z,4.20
2022-09-22T22:00:42.392Z,4.30
2022-09-22T22:03:30.465Z,3.95
2022-09-22T22:06:08.409Z,3.55
2022-09-22T22:08:42.672Z,3.38
2022-09-22T22:11:13.528Z,3.65
2022-09-22T22:13:45.068Z,3.58
2022-09-22T22:16:14.685Z,3.25
2022-09-22T22:18:43.508Z,3.30
2022-09-22T22:21:14.785Z,3.10
2022-09-22T22:23:47.210Z,3.13
2022-09-22T22:26:19.900Z,3.60
2022-09-22T22:28:50.154Z,3.53
2022-09-22T22:31:21.445Z,3.30
2022-09-22T22:33:50.806Z,3.58
2022-09-22T22:36:19.969Z,3.45
2022-09-22T22:38:53.966Z,3.25
2022-09-22T22:41:22.297Z,3.63
2022-09-22T22:43:50.608Z,3.33
2022-09-22T22:46:19.545Z,3.35
2022-09-22T22:48:48.975Z,3.40
2022-09-22T22:51:19.467Z,3.78
2022-09-22T22:53:49.782Z,3.72
2022-09-22T22:56:20.156Z,4.10
2022-09-22T22:58:50.282Z,4.53
2022-09-22T23:01:21.966Z,4.35
2022-09-22T23:03:53.065Z,4.73
2022-09-22T23:06:24.024Z,4.68
2022-09-22T23:08:54.824Z,4.65
2022-09-22T23:11:27.225Z,4.07
2022-09-22T23:13:59.481Z,7.57
2022-09-22T23:16:29.581Z,5.45
2022-09-22T23:19:01.296Z,4.75
2022-09-22T23:21:31.249Z,5.78
2022-09-22T23:24:01.087Z,5.63
2022-09-22T23:26:29.981Z,5.40
2022-09-22T23:28:59.251Z,6.70
2022-09-22T23:31:28.144Z,6.47
2022-09-22T23:33:57.683Z,6.47
2022-09-22T23:36:28.947Z,6.28
2022-09-22T23:39:01.877Z,6.25
2022-09-22T23:41:32.160Z,6.43
2022-09-22T23:44:00.498Z,6.43
2022-09-22T23:46:28.888Z,8.10
2022-09-22T23:48:57.060Z,7.43
2022-09-22T23:51:25.319Z,8.00
2022-09-22T23:53:53.655Z,8.10
2022-09-22T23:56:21.778Z,6.63
2022-09-22T23:58:52.089Z,6.97
